createdAt,value
2023-03-31T00:00:02.615Z,11.26
2023-03-31T00:01:02.799Z,11.27
2023-03-31T00:02:03.006Z,11.30
2023-03-31T00:03:03.349Z,11.31
2023-03-31T00:04:03.703Z,11.31
2023-03-31T00:05:04.051Z,11.31
2023-03-31T00:06:04.363Z,11.31
2023-03-31T00:07:04.290Z,11.33
2023-03-31T00:08:04.520Z,11.33
2023-03-31T00:09:04.715Z,11.33
2023-03-31T00:10:17.310Z,11.33
2023-03-31T00:11:06.156Z,11.31
2023-03-31T00:12:05.472Z,11.31
2023-03-31T00:13:05.651Z,11.27
2023-03-31T00:14:05.847Z,11.27
2023-03-31T00:15:06.016Z,11.30
2023-03-31T00:16:06.596Z,11.27
2023-03-31T00:17:06.554Z,11.30
2023-03-31T00:18:06.765Z,11.30
2023-03-31T00:19:07.017Z,11.30
2023-03-31T00:20:07.318Z,11.30
2023-03-31T00:21:07.497Z,11.27
2023-03-31T00:22:07.806Z,11.27
2023-03-31T00:23:07.981Z,11.27
2023-03-31T00:24:08.297Z,11.26
2023-03-31T00:25:08.489Z,11.26
2023-03-31T00:26:08.754Z,11.23
2023-03-31T00:27:08.897Z,11.20
2023-03-31T00:28:09.096Z,11.20
2023-03-31T00:29:09.275Z,11.20
2023-03-31T00:30:09.453Z,11.19
2023-03-31T00:31:09.735Z,11.22
2023-03-31T00:32:10.070Z,11.20
2023-03-31T00:33:10.251Z,11.20
2023-03-31T00:34:10.574Z,11.20
2023-03-31T00:35:10.747Z,11.20
2023-03-31T00:36:11.072Z,11.20
2023-03-31T00:37:11.244Z,11.19
2023-03-31T00:38:11.427Z,11.18
2023-03-31T00:39:11.602Z,11.18
2023-03-31T00:40:11.901Z,11.20
2023-03-31T00:41:12.069Z,11.20
2023-03-31T00:42:12.276Z,11.19
2023-03-31T00:43:12.452Z,11.20
2023-03-31T00:44:12.736Z,11.20
2023-03-31T00:45:12.910Z,11.18
2023-03-31T00:46:13.234Z,11.20
2023-03-31T00:47:13.390Z,11.22
2023-03-31T00:48:13.639Z,11.22
2023-03-31T00:49:13.864Z,11.22
2023-03-31T00:50:14.042Z,11.18
2023-03-31T00:51:14.214Z,11.13
2023-03-31T00:52:14.536Z,11.13
2023-03-31T00:53:14.719Z,11.12
2023-03-31T00:54:15.009Z,11.10
2023-03-31T00:55:15.294Z,11.10
2023-03-31T00:56:15.615Z,11.08
2023-03-31T00:57:15.885Z,11.05
2023-03-31T00:58:16.054Z,11.04
2023-03-31T00:59:16.255Z,11.01
2023-03-31T01:00:16.473Z,11.00
2023-03-31T01:01:16.662Z,10.98
2023-03-31T01:02:16.972Z,10.95
2023-03-31T01:03:17.173Z,10.94
2023-03-31T01:04:17.464Z,10.94
2023-03-31T01:05:17.639Z,10.94
2023-03-31T01:06:17.952Z,10.90
2023-03-31T01:07:18.167Z,10.90
2023-03-31T01:08:18.386Z,10.89
2023-03-31T01:09:18.577Z,10.87
2023-03-31T01:10:18.770Z,10.89
2023-03-31T01:11:18.954Z,10.87
2023-03-31T01:12:19.272Z,10.86
2023-03-31T01:13:19.450Z,10.84
2023-03-31T01:14:19.753Z,10.82
2023-03-31T01:15:19.942Z,10.79
2023-03-31T01:16:20.290Z,10.77
2023-03-31T01:17:20.619Z,10.75
2023-03-31T01:18:20.741Z,10.75
2023-03-31T01:19:20.933Z,10.72
2023-03-31T01:20:21.252Z,10.71
2023-03-31T01:21:21.407Z,10.71
2023-03-31T01:22:21.729Z,10.68
2023-03-31T01:23:21.938Z,10.67
2023-03-31T01:24:22.209Z,10.67
2023-03-31T01:25:22.395Z,10.68
2023-03-31T01:26:22.600Z,10.69
2023-03-31T01:27:22.813Z,10.68
2023-03-31T01:28:23.008Z,10.68
2023-03-31T01:29:23.201Z,10.65
2023-03-31T01:30:23.505Z,10.62
2023-03-31T01:31:23.724Z,10.64
2023-03-31T01:32:24.043Z,10.64
2023-03-31T01:33:24.214Z,10.64
2023-03-31T01:34:24.534Z,10.65
2023-03-31T01:35:24.762Z,10.65
2023-03-31T01:36:25.008Z,10.67
2023-03-31T01:37:25.211Z,10.65
2023-03-31T01:38:25.415Z,10.65
2023-03-31T01:39:25.597Z,10.67
2023-03-31T01:40:25.917Z,10.69
2023-03-31T01:41:26.121Z,10.68
2023-03-31T01:42:26.445Z,10.69
2023-03-31T01:43:26.651Z,10.69
2023-03-31T01:44:26.825Z,10.69
2023-03-31T01:45:27.136Z,10.72
2023-03-31T01:46:27.362Z,10.72
2023-03-31T01:47:27.550Z,10.72
2023-03-31T01:48:27.778Z,10.71
2023-03-31T01:49:27.970Z,10.71
2023-03-31T01:50:28.260Z,10.69
2023-03-31T01:51:28.447Z,10.68
2023-03-31T01:52:28.843Z,10.68
2023-03-31T01:53:28.979Z,10.67
2023-03-31T01:54:29.283Z,10.67
2023-03-31T01:55:29.458Z,10.68
2023-03-31T01:56:32.623Z,10.68
2023-03-31T01:57:30.081Z,10.67
2023-03-31T01:58:30.224Z,10.67
2023-03-31T01:59:30.405Z,10.65
2023-03-31T02:00:30.700Z,10.65
2023-03-31T02:01:31.489Z,10.65
2023-03-31T02:02:31.226Z,10.62
2023-03-31T02:03:31.448Z,10.62
2023-03-31T02:04:31.641Z,10.59
2023-03-31T02:05:31.832Z,10.61
2023-03-31T02:06:32.135Z,10.59
2023-03-31T02:07:32.331Z,10.61
2023-03-31T02:08:32.501Z,10.59
2023-03-31T02:09:32.799Z,10.59
2023-03-31T02:10:33.101Z,10.58
2023-03-31T02:11:33.306Z,10.58
2023-03-31T02:12:33.534Z,10.59
2023-03-31T02:13:33.716Z,10.59
2023-03-31T02:14:34.035Z,10.61
2023-03-31T02:15:34.230Z,10.61
2023-03-31T02:16:34.448Z,10.61
2023-03-31T02:17:34.643Z,10.62
2023-03-31T02:18:34.799Z,10.62
2023-03-31T02:19:35.102Z,10.62
2023-03-31T02:20:35.391Z,10.61
2023-03-31T02:21:35.569Z,10.62
2023-03-31T02:22:35.903Z,10.61
2023-03-31T02:23:36.088Z,10.61
2023-03-31T02:24:36.393Z,10.59
2023-03-31T02:25:36.572Z,10.61
2023-03-31T02:26:36.877Z,10.64
2023-03-31T02:27:37.065Z,10.65
2023-03-31T02:28:37.366Z,10.67
2023-03-31T02:29:37.542Z,10.64
2023-03-31T02:30:37.850Z,10.67
2023-03-31T02:31:38.053Z,10.68
2023-03-31T02:32:38.378Z,10.69
2023-03-31T02:33:38.609Z,10.71
2023-03-31T02:34:38.904Z,10.69
2023-03-31T02:35:39.156Z,10.72
2023-03-31T02:36:39.292Z,10.72
2023-03-31T02:37:39.501Z,10.71
2023-03-31T02:38:39.685Z,10.71
2023-03-31T02:39:39.984Z,10.68
2023-03-31T02:40:40.291Z,10.71
2023-03-31T02:41:40.491Z,10.71
2023-03-31T02:42:40.699Z,10.72
2023-03-31T02:43:40.903Z,10.75
2023-03-31T02:44:41.217Z,10.72
2023-03-31T02:45:42.450Z,10.72
2023-03-31T02:46:41.692Z,10.72
2023-03-31T02:47:41.952Z,10.76
2023-03-31T02:48:42.119Z,10.75
2023-03-31T02:49:42.301Z,10.75
2023-03-31T02:50:42.604Z,10.76
2023-03-31T02:51:42.786Z,10.77
2023-03-31T02:52:43.105Z,10.77
2023-03-31T02:53:43.299Z,10.77
2023-03-31T02:54:43.615Z,10.80
2023-03-31T02:55:43.795Z,10.79
2023-03-31T02:56:44.000Z,10.82
2023-03-31T02:57:44.192Z,10.80
2023-03-31T02:58:44.391Z,10.83
2023-03-31T02:59:44.588Z,10.82
2023-03-31T03:00:44.780Z,10.82
2023-03-31T03:01:45.062Z,10.82
2023-03-31T03:02:45.304Z,10.82
2023-03-31T03:03:45.499Z,10.82
2023-03-31T03:04:45.800Z,10.80
2023-03-31T03:05:46.062Z,10.80
2023-03-31T03:06:46.192Z,10.80
2023-03-31T03:07:46.384Z,10.82
2023-03-31T03:08:46.561Z,10.84
2023-03-31T03:09:46.747Z,10.84
2023-03-31T03:10:47.052Z,10.84
2023-03-31T03:11:47.246Z,10.84
2023-03-31T03:12:47.443Z,10.86
2023-03-31T03:13:47.633Z,10.87
2023-03-31T03:14:47.911Z,10.87
2023-03-31T03:15:48.109Z,10.84
2023-03-31T03:16:48.404Z,10.86
2023-03-31T03:17:48.689Z,10.84
2023-03-31T03:18:48.858Z,10.86
2023-03-31T03:19:49.051Z,10.87
2023-03-31T03:20:49.315Z,10.86
2023-03-31T03:21:49.481Z,10.89
2023-03-31T03:22:49.668Z,10.86
2023-03-31T03:23:49.861Z,10.86
2023-03-31T03:24:50.045Z,10.86
2023-03-31T03:25:50.338Z,10.86
2023-03-31T03:26:50.513Z,10.92
2023-03-31T03:27:50.821Z,10.90
2023-03-31T03:28:51.005Z,10.92
2023-03-31T03:29:51.313Z,10.94
2023-03-31T03:30:51.597Z,10.95
2023-03-31T03:31:51.762Z,10.97
2023-03-31T03:32:51.966Z,10.94
2023-03-31T03:33:52.246Z,10.95
2023-03-31T03:34:52.445Z,10.94
2023-03-31T03:35:52.656Z,10.94
2023-03-31T03:36:52.826Z,10.95
2023-03-31T03:37:53.149Z,10.94
2023-03-31T03:38:53.337Z,10.94
2023-03-31T03:39:53.631Z,10.95
2023-03-31T03:40:53.816Z,10.95
2023-03-31T03:41:54.101Z,10.95
2023-03-31T03:42:54.396Z,10.97
2023-03-31T03:43:54.614Z,10.95
2023-03-31T03:44:54.760Z,10.97
2023-03-31T03:45:55.067Z,10.97
2023-03-31T03:46:55.241Z,10.95
2023-03-31T03:47:55.629Z,10.97
2023-03-31T03:48:55.719Z,10.95
2023-03-31T03:49:56.015Z,10.95
2023-03-31T03:50:56.193Z,10.95
2023-03-31T03:51:56.489Z,10.97
2023-03-31T03:52:56.681Z,10.97
2023-03-31T03:53:56.860Z,10.95
2023-03-31T03:54:57.043Z,10.95
2023-03-31T03:55:57.338Z,10.94
2023-03-31T03:56:57.552Z,10.95
2023-03-31T03:57:57.740Z,10.97
2023-03-31T03:58:57.925Z,10.97
2023-03-31T03:59:58.213Z,10.97
2023-03-31T04:00:58.392Z,10.97
2023-03-31T04:01:58.758Z,10.97
2023-03-31T04:02:58.938Z,10.95
2023-03-31T04:03:59.097Z,10.94
2023-03-31T04:04:59.452Z,10.95
2023-03-31T04:05:59.597Z,10.95
2023-03-31T04:06:59.774Z,10.95
2023-03-31T04:08:00.135Z,10.92
2023-03-31T04:09:00.303Z,10.94
2023-03-31T04:10:00.589Z,10.95
2023-03-31T04:11:00.772Z,10.95
2023-03-31T04:12:00.985Z,10.94
2023-03-31T04:13:01.196Z,10.94
2023-03-31T04:14:01.435Z,10.94
2023-03-31T04:15:01.648Z,10.94
2023-03-31T04:16:01.955Z,10.92
2023-03-31T04:17:02.096Z,10.94
2023-03-31T04:18:02.398Z,10.92
2023-03-31T04:19:02.597Z,10.90
2023-03-31T04:20:02.836Z,10.92
2023-03-31T04:21:03.057Z,10.92
2023-03-31T04:22:03.383Z,10.92
2023-03-31T04:23:03.477Z,10.90
2023-03-31T04:24:03.665Z,10.90
2023-03-31T04:25:03.827Z,10.89
2023-03-31T04:26:04.425Z,10.87
2023-03-31T04:27:04.394Z,10.86
2023-03-31T04:28:04.706Z,10.87
2023-03-31T04:29:04.882Z,10.87
2023-03-31T04:30:05.178Z,10.84
2023-03-31T04:31:05.363Z,10.83
2023-03-31T04:32:05.731Z,10.82
2023-03-31T04:33:06.022Z,10.82
2023-03-31T04:34:06.171Z,10.80
2023-03-31T04:35:06.361Z,10.80
2023-03-31T04:36:06.815Z,10.83
2023-03-31T04:37:06.766Z,10.82
2023-03-31T04:38:07.089Z,10.82
2023-03-31T04:39:07.281Z,10.84
2023-03-31T04:40:07.473Z,10.83
2023-03-31T04:41:07.658Z,10.86
2023-03-31T04:42:07.956Z,10.83
2023-03-31T04:43:08.146Z,10.84
2023-03-31T04:44:08.331Z,10.84
2023-03-31T04:45:08.619Z,10.84
2023-03-31T04:46:09.261Z,10.83
2023-03-31T04:47:09.185Z,10.83
2023-03-31T04:48:09.503Z,10.83
2023-03-31T04:49:09.689Z,10.82
2023-03-31T04:50:12.052Z,10.82
2023-03-31T04:51:10.183Z,10.80
2023-03-31T04:52:10.498Z,10.80
2023-03-31T04:53:10.680Z,10.82
2023-03-31T04:54:10.879Z,10.82
2023-03-31T04:55:11.084Z,10.80
2023-03-31T04:56:11.356Z,10.82
2023-03-31T04:57:11.584Z,10.83
2023-03-31T04:58:11.870Z,10.82
2023-03-31T04:59:12.071Z,10.82
2023-03-31T05:00:12.410Z,10.80
2023-03-31T05:01:12.583Z,10.80
2023-03-31T05:02:12.912Z,10.80
2023-03-31T05:03:13.167Z,10.79
2023-03-31T05:04:13.361Z,10.79
2023-03-31T05:05:13.634Z,10.76
2023-03-31T05:06:13.934Z,10.76
2023-03-31T05:07:14.124Z,10.72
2023-03-31T05:08:14.355Z,10.72
2023-03-31T05:09:14.556Z,10.71
2023-03-31T05:10:14.719Z,10.71
2023-03-31T05:11:14.898Z,10.69
2023-03-31T05:12:15.197Z,10.69
2023-03-31T05:13:15.513Z,10.68
2023-03-31T05:14:15.729Z,10.67
2023-03-31T05:15:15.935Z,10.67
2023-03-31T05:16:16.292Z,10.64
2023-03-31T05:17:16.478Z,10.62
2023-03-31T05:18:18.256Z,10.62
2023-03-31T05:19:16.996Z,10.62
2023-03-31T05:20:17.196Z,10.62
2023-03-31T05:21:17.389Z,10.61
2023-03-31T05:22:17.693Z,10.61
2023-03-31T05:23:17.893Z,10.61
2023-03-31T05:24:18.088Z,10.59
2023-03-31T05:25:18.277Z,10.61
2023-03-31T05:26:18.573Z,10.62
2023-03-31T05:27:18.760Z,10.65
2023-03-31T05:28:19.099Z,10.65
2023-03-31T05:29:19.265Z,10.68
2023-03-31T05:30:19.590Z,10.69
2023-03-31T05:31:19.770Z,10.72
2023-03-31T05:32:20.050Z,10.77
2023-03-31T05:33:20.246Z,10.79
2023-03-31T05:34:20.441Z,10.82
2023-03-31T05:35:20.608Z,10.84
2023-03-31T05:36:20.973Z,10.89
2023-03-31T05:37:21.109Z,10.90
2023-03-31T05:38:21.417Z,10.90
2023-03-31T05:39:21.590Z,11.02
2023-03-31T05:40:21.886Z,11.12
2023-03-31T05:41:22.076Z,11.18
2023-03-31T05:42:22.395Z,11.27
2023-03-31T05:43:22.585Z,11.41
2023-03-31T05:44:22.788Z,11.45
2023-03-31T05:45:22.965Z,11.53
2023-03-31T05:46:23.305Z,11.53
2023-03-31T05:47:23.476Z,11.67
2023-03-31T05:48:23.671Z,11.62
2023-03-31T05:49:23.852Z,11.65
2023-03-31T05:50:24.035Z,11.68
2023-03-31T05:51:24.193Z,11.62
2023-03-31T05:52:24.513Z,11.51
2023-03-31T05:53:24.705Z,11.45
2023-03-31T05:54:24.872Z,11.40
2023-03-31T05:55:25.197Z,11.34
2023-03-31T05:56:25.384Z,11.34
2023-03-31T05:57:25.593Z,11.33
2023-03-31T05:58:25.846Z,11.27
2023-03-31T05:59:26.025Z,11.34
2023-03-31T06:00:26.299Z,11.35
2023-03-31T06:01:26.678Z,11.27
2023-03-31T06:02:27.033Z,11.23
2023-03-31T06:03:27.066Z,11.22
2023-03-31T06:04:27.243Z,11.19
2023-03-31T06:05:27.425Z,11.16
2023-03-31T06:06:27.714Z,11.13
2023-03-31T06:07:27.887Z,11.08
2023-03-31T06:08:28.202Z,11.04
2023-03-31T06:09:28.473Z,11.04
2023-03-31T06:10:28.671Z,11.04
2023-03-31T06:11:28.856Z,11.07
2023-03-31T06:12:29.053Z,11.08
2023-03-31T06:13:29.258Z,11.13
2023-03-31T06:14:29.451Z,11.19
2023-03-31T06:15:29.632Z,11.25
2023-03-31T06:16:29.946Z,11.38
2023-03-31T06:17:30.132Z,11.49
2023-03-31T06:18:30.411Z,11.68
2023-03-31T06:19:30.583Z,12.05
2023-03-31T06:20:30.927Z,12.48
2023-03-31T06:21:31.049Z,12.69
2023-03-31T06:22:31.346Z,12.76
2023-03-31T06:23:31.536Z,12.99
2023-03-31T06:24:31.721Z,13.02
2023-03-31T06:25:43.782Z,13.11
2023-03-31T06:26:33.160Z,13.31
2023-03-31T06:27:32.322Z,13.27
2023-03-31T06:28:32.509Z,13.02
2023-03-31T06:29:32.687Z,12.76
2023-03-31T06:30:32.859Z,12.62
2023-03-31T06:31:33.189Z,12.48
2023-03-31T06:32:33.431Z,12.50
2023-03-31T06:33:33.620Z,12.61
2023-03-31T06:34:33.810Z,12.78
2023-03-31T06:35:34.012Z,12.86
2023-03-31T06:36:34.139Z,13.12
2023-03-31T06:37:34.410Z,13.50
2023-03-31T06:38:34.699Z,13.82
2023-03-31T06:39:34.856Z,13.95
2023-03-31T06:40:35.129Z,13.97
2023-03-31T06:41:35.318Z,14.37
2023-03-31T06:42:35.578Z,14.52
2023-03-31T06:43:35.755Z,14.96
2023-03-31T06:44:35.922Z,15.10
2023-03-31T06:45:36.429Z,15.25
2023-03-31T06:46:36.359Z,15.11
2023-03-31T06:47:36.550Z,15.43
2023-03-31T06:48:36.697Z,15.66
2023-03-31T06:49:36.858Z,15.87
2023-03-31T06:50:37.014Z,16.03
2023-03-31T06:51:37.167Z,16.17
2023-03-31T06:52:37.325Z,15.78
2023-03-31T06:53:37.478Z,15.23
2023-03-31T06:54:37.622Z,14.87
2023-03-31T06:55:37.759Z,14.71
2023-03-31T06:56:37.896Z,14.79
2023-03-31T06:57:38.044Z,14.93
2023-03-31T06:58:38.310Z,15.04
2023-03-31T06:59:38.444Z,15.12
2023-03-31T07:00:38.593Z,15.30
2023-03-31T07:01:38.773Z,15.55
2023-03-31T07:02:38.955Z,15.88
2023-03-31T07:03:39.083Z,15.96
2023-03-31T07:04:39.164Z,16.00
2023-03-31T07:05:39.292Z,16.03
2023-03-31T07:06:39.549Z,16.36
2023-03-31T07:07:39.680Z,16.16
2023-03-31T07:08:39.826Z,15.45
2023-03-31T07:09:39.951Z,15.08
2023-03-31T07:10:40.094Z,14.96
2023-03-31T07:11:40.224Z,14.93
2023-03-31T07:12:40.357Z,15.12
2023-03-31T07:13:40.599Z,15.55
2023-03-31T07:14:40.759Z,15.55
2023-03-31T07:15:40.876Z,15.94
2023-03-31T07:16:41.190Z,16.46
2023-03-31T07:17:41.357Z,16.29
2023-03-31T07:18:41.586Z,15.70
2023-03-31T07:19:41.720Z,15.45
2023-03-31T07:20:41.864Z,15.30
2023-03-31T07:21:42.019Z,15.30
2023-03-31T07:22:42.237Z,15.10
2023-03-31T07:23:42.378Z,15.26
2023-03-31T07:24:42.507Z,15.26
2023-03-31T07:25:42.643Z,15.41
2023-03-31T07:26:42.882Z,15.72
2023-03-31T07:27:43.040Z,16.00
2023-03-31T07:28:43.189Z,16.12
2023-03-31T07:29:43.317Z,16.00
2023-03-31T07:30:43.574Z,15.94
2023-03-31T07:31:43.725Z,15.99
2023-03-31T07:32:43.863Z,15.90
2023-03-31T07:33:44.010Z,15.70
2023-03-31T07:34:44.147Z,15.67
2023-03-31T07:35:44.293Z,15.50
2023-03-31T07:36:44.428Z,15.48
2023-03-31T07:37:44.561Z,15.72
2023-03-31T07:38:44.718Z,16.18
2023-03-31T07:39:44.865Z,16.57
2023-03-31T07:40:46.231Z,16.94
2023-03-31T07:41:45.189Z,17.32
2023-03-31T07:42:47.841Z,17.50
2023-03-31T07:43:45.644Z,17.53
2023-03-31T07:44:45.760Z,17.63
2023-03-31T07:45:46.056Z,17.76
2023-03-31T07:46:46.204Z,17.90
2023-03-31T07:47:46.560Z,17.94
2023-03-31T07:48:46.534Z,17.65
2023-03-31T07:49:46.644Z,17.93
2023-03-31T07:50:46.762Z,17.57
2023-03-31T07:51:46.897Z,17.95
2023-03-31T07:52:47.369Z,18.06
2023-03-31T07:53:47.178Z,18.45
2023-03-31T07:54:47.295Z,18.85
2023-03-31T07:55:47.444Z,18.73
2023-03-31T07:56:47.590Z,17.97
2023-03-31T07:57:47.820Z,17.47
2023-03-31T07:58:47.853Z,17.38
2023-03-31T07:59:47.953Z,17.01
2023-03-31T08:00:48.086Z,16.68
2023-03-31T08:01:48.272Z,16.47
2023-03-31T08:02:48.372Z,16.47
2023-03-31T08:03:48.567Z,16.57
2023-03-31T08:04:48.683Z,16.28
2023-03-31T08:05:51.080Z,15.99
2023-03-31T08:06:48.999Z,15.78
2023-03-31T08:07:49.208Z,15.60
2023-03-31T08:08:49.360Z,15.51
2023-03-31T08:09:49.533Z,15.27
2023-03-31T08:10:49.672Z,15.27
2023-03-31T08:11:49.799Z,15.54
2023-03-31T08:12:49.936Z,15.63
2023-03-31T08:13:50.173Z,15.87
2023-03-31T08:14:50.195Z,16.06
2023-03-31T08:15:50.369Z,16.12
2023-03-31T08:16:50.476Z,16.08
2023-03-31T08:17:50.739Z,16.18
2023-03-31T08:18:50.896Z,16.21
2023-03-31T08:19:51.043Z,16.34
2023-03-31T08:20:51.200Z,16.10
2023-03-31T08:21:51.366Z,15.98
2023-03-31T08:22:51.482Z,15.83
2023-03-31T08:23:51.749Z,16.03
2023-03-31T08:24:51.904Z,16.34
2023-03-31T08:25:52.037Z,16.43
2023-03-31T08:26:52.165Z,16.54
2023-03-31T08:27:52.288Z,16.91
2023-03-31T08:28:52.457Z,16.80
2023-03-31T08:29:52.629Z,16.66
2023-03-31T08:30:52.777Z,16.82
2023-03-31T08:31:53.014Z,17.35
2023-03-31T08:32:53.098Z,17.78
2023-03-31T08:33:53.201Z,18.02
2023-03-31T08:34:53.306Z,17.97
2023-03-31T08:35:53.520Z,17.73
2023-03-31T08:36:53.624Z,17.19
2023-03-31T08:37:53.842Z,17.22
2023-03-31T08:38:53.946Z,17.34
2023-03-31T08:39:54.071Z,17.52
2023-03-31T08:40:54.175Z,17.28
2023-03-31T08:41:54.287Z,17.23
2023-03-31T08:42:54.399Z,17.53
2023-03-31T08:43:54.570Z,17.42
2023-03-31T08:44:54.651Z,17.04
2023-03-31T08:45:56.131Z,16.64
2023-03-31T08:46:54.961Z,16.54
2023-03-31T08:47:55.206Z,16.54
2023-03-31T08:48:55.318Z,16.58
2023-03-31T08:49:55.439Z,16.68
2023-03-31T08:50:55.549Z,17.16
2023-03-31T08:51:55.675Z,17.72
2023-03-31T08:52:55.780Z,17.88
2023-03-31T08:53:55.913Z,18.02
2023-03-31T08:54:56.017Z,17.59
2023-03-31T08:55:56.232Z,17.27
2023-03-31T08:56:56.384Z,17.17
2023-03-31T08:57:56.471Z,17.10
2023-03-31T08:58:56.583Z,16.99
2023-03-31T08:59:56.696Z,17.01
2023-03-31T09:00:56.849Z,17.14
2023-03-31T09:01:57.211Z,17.27
2023-03-31T09:02:57.155Z,16.98
2023-03-31T09:03:57.381Z,16.58
2023-03-31T09:04:57.357Z,16.34
2023-03-31T09:06:00.710Z,16.37
2023-03-31T09:06:57.747Z,16.43
2023-03-31T09:07:57.867Z,16.72
2023-03-31T09:08:58.004Z,16.69
2023-03-31T09:09:58.116Z,16.69
2023-03-31T09:10:58.226Z,17.23
2023-03-31T09:11:58.340Z,18.00
2023-03-31T09:12:58.460Z,19.04
2023-03-31T09:13:58.724Z,20.08
2023-03-31T09:14:58.833Z,20.40
2023-03-31T09:15:58.917Z,20.60
2023-03-31T09:16:59.054Z,19.97
2023-03-31T09:17:59.144Z,19.74
2023-03-31T09:18:59.303Z,19.29
2023-03-31T09:19:59.349Z,19.16
2023-03-31T09:20:59.437Z,19.01
2023-03-31T09:21:59.535Z,18.61
2023-03-31T09:22:59.624Z,18.63
2023-03-31T09:23:59.719Z,18.43
2023-03-31T09:24:59.816Z,18.48
2023-03-31T09:25:59.887Z,18.49
2023-03-31T09:26:59.999Z,18.27
2023-03-31T09:28:00.134Z,17.69
2023-03-31T09:29:00.236Z,17.42
2023-03-31T09:30:00.344Z,17.07
2023-03-31T09:31:00.465Z,16.87
2023-03-31T09:32:00.638Z,16.68
2023-03-31T09:33:00.756Z,16.65
2023-03-31T09:34:00.826Z,16.54
2023-03-31T09:35:00.933Z,16.49
2023-03-31T09:36:01.159Z,16.37
2023-03-31T09:37:01.252Z,15.90
2023-03-31T09:38:01.359Z,15.83
2023-03-31T09:39:01.518Z,15.87
2023-03-31T09:40:01.672Z,15.66
2023-03-31T09:41:01.802Z,15.66
2023-03-31T09:42:01.908Z,15.75
2023-03-31T09:43:02.073Z,15.81
2023-03-31T09:44:02.234Z,16.00
2023-03-31T09:45:02.357Z,16.28
2023-03-31T09:46:09.719Z,16.51
2023-03-31T09:47:03.819Z,16.58
2023-03-31T09:48:02.913Z,16.64
2023-03-31T09:49:02.998Z,16.61
2023-03-31T09:50:03.116Z,16.69
2023-03-31T09:51:03.242Z,16.86
2023-03-31T09:52:03.476Z,17.04
2023-03-31T09:53:03.585Z,17.38
2023-03-31T09:54:03.834Z,18.06
2023-03-31T09:55:03.948Z,18.39
2023-03-31T09:56:04.385Z,18.16
2023-03-31T09:57:04.286Z,17.93
2023-03-31T09:58:04.375Z,17.72
2023-03-31T09:59:04.549Z,17.35
2023-03-31T10:00:04.649Z,17.09
2023-03-31T10:01:04.993Z,16.94
2023-03-31T10:02:05.058Z,16.54
2023-03-31T10:03:05.068Z,16.32
2023-03-31T10:04:05.240Z,16.02
2023-03-31T10:05:05.352Z,15.76
2023-03-31T10:06:05.473Z,15.66
2023-03-31T10:07:05.613Z,15.63
2023-03-31T10:08:05.767Z,15.50
2023-03-31T10:09:05.882Z,15.48
2023-03-31T10:10:06.013Z,15.37
2023-03-31T10:11:06.310Z,15.29
2023-03-31T10:12:06.370Z,15.14
2023-03-31T10:13:06.513Z,15.10
2023-03-31T10:14:06.813Z,15.08
2023-03-31T10:15:06.947Z,15.11
2023-03-31T10:16:07.263Z,15.07
2023-03-31T10:17:07.244Z,15.07
2023-03-31T10:18:07.430Z,15.19
2023-03-31T10:19:14.638Z,15.36
2023-03-31T10:20:07.763Z,15.39
2023-03-31T10:21:08.150Z,15.48
2023-03-31T10:22:09.802Z,15.41
2023-03-31T10:23:08.964Z,15.43
2023-03-31T10:24:08.464Z,15.63
2023-03-31T10:25:08.611Z,15.91
2023-03-31T10:26:08.890Z,16.58
2023-03-31T10:27:09.038Z,16.98
2023-03-31T10:28:09.196Z,17.13
2023-03-31T10:29:09.334Z,16.74
2023-03-31T10:30:09.492Z,16.72
2023-03-31T10:31:09.954Z,16.46
2023-03-31T10:32:09.760Z,16.39
2023-03-31T10:33:22.100Z,16.25
2023-03-31T10:34:11.138Z,16.21
2023-03-31T10:35:10.270Z,16.05
2023-03-31T10:36:10.462Z,16.05
2023-03-31T10:37:10.557Z,16.03
2023-03-31T10:38:10.855Z,15.91
2023-03-31T10:39:11.005Z,15.72
2023-03-31T10:40:11.162Z,15.57
2023-03-31T10:41:11.322Z,15.48
2023-03-31T10:42:11.608Z,15.29
2023-03-31T10:43:11.743Z,15.18
2023-03-31T10:44:12.370Z,15.18
2023-03-31T10:45:13.658Z,15.12
2023-03-31T10:46:13.417Z,15.00
2023-03-31T10:47:12.537Z,14.90
2023-03-31T10:48:12.699Z,14.85
2023-03-31T10:49:12.838Z,14.73
2023-03-31T10:50:13.023Z,14.73
2023-03-31T10:51:14.807Z,14.70
2023-03-31T10:52:13.421Z,14.66
2023-03-31T10:53:13.577Z,14.62
2023-03-31T10:54:13.726Z,14.73
2023-03-31T10:55:13.875Z,14.82
2023-03-31T10:56:14.028Z,14.96
2023-03-31T10:57:14.259Z,15.02
2023-03-31T10:58:14.392Z,15.00
2023-03-31T10:59:14.553Z,14.99
2023-03-31T11:00:14.725Z,14.94
2023-03-31T11:01:14.904Z,14.93
2023-03-31T11:02:15.088Z,15.02
2023-03-31T11:03:15.237Z,15.25
2023-03-31T11:04:15.396Z,15.52
2023-03-31T11:05:15.555Z,15.51
2023-03-31T11:06:15.706Z,15.44
2023-03-31T11:07:15.853Z,15.39
2023-03-31T11:08:17.373Z,15.47
2023-03-31T11:09:16.291Z,15.44
2023-03-31T11:10:16.437Z,15.43
2023-03-31T11:11:16.554Z,15.50
2023-03-31T11:12:16.695Z,15.37
2023-03-31T11:13:16.828Z,15.37
2023-03-31T11:14:17.085Z,15.39
2023-03-31T11:15:17.251Z,15.52
2023-03-31T11:16:17.508Z,15.72
2023-03-31T11:17:17.751Z,15.83
2023-03-31T11:18:17.934Z,15.98
2023-03-31T11:19:18.061Z,16.05
2023-03-31T11:20:18.310Z,16.13
2023-03-31T11:21:18.433Z,16.25
2023-03-31T11:22:18.568Z,16.17
2023-03-31T11:23:18.727Z,16.24
2023-03-31T11:24:18.875Z,16.26
2023-03-31T11:25:19.044Z,15.99
2023-03-31T11:26:19.216Z,15.88
2023-03-31T11:27:19.347Z,15.92
2023-03-31T11:28:19.476Z,15.94
2023-03-31T11:29:19.614Z,15.92
2023-03-31T11:30:19.743Z,15.90
2023-03-31T11:31:19.891Z,15.94
2023-03-31T11:32:20.033Z,15.94
2023-03-31T11:33:20.168Z,15.78
2023-03-31T11:34:20.299Z,15.78
2023-03-31T11:35:20.434Z,15.70
2023-03-31T11:36:20.679Z,15.73
2023-03-31T11:37:20.683Z,15.90
2023-03-31T11:38:22.599Z,16.02
2023-03-31T11:39:21.113Z,16.09
2023-03-31T11:40:21.273Z,16.00
2023-03-31T11:41:21.400Z,16.03
2023-03-31T11:42:21.526Z,15.98
2023-03-31T11:43:21.654Z,15.98
2023-03-31T11:44:21.834Z,15.81
2023-03-31T11:45:21.983Z,15.65
2023-03-31T11:46:22.171Z,15.55
2023-03-31T11:47:22.281Z,15.62
2023-03-31T11:48:22.450Z,15.69
2023-03-31T11:49:22.586Z,15.76
2023-03-31T11:50:22.773Z,15.88
2023-03-31T11:51:22.917Z,15.88
2023-03-31T11:52:23.050Z,15.75
2023-03-31T11:53:23.217Z,15.57
2023-03-31T11:54:23.374Z,15.41
2023-03-31T11:55:23.537Z,15.29
2023-03-31T11:56:23.696Z,15.27
2023-03-31T11:57:23.915Z,15.27
2023-03-31T11:58:24.025Z,15.14
2023-03-31T11:59:24.213Z,15.04
2023-03-31T12:00:24.345Z,14.96
2023-03-31T12:01:24.493Z,14.82
2023-03-31T12:02:24.666Z,14.73
2023-03-31T12:03:24.933Z,14.62
2023-03-31T12:04:24.942Z,14.61
2023-03-31T12:05:25.232Z,14.55
2023-03-31T12:06:25.345Z,14.55
2023-03-31T12:07:25.506Z,14.58
2023-03-31T12:08:25.645Z,14.74
2023-03-31T12:09:25.787Z,14.81
2023-03-31T12:10:25.941Z,14.86
2023-03-31T12:11:26.204Z,15.04
2023-03-31T12:12:26.343Z,14.93
2023-03-31T12:13:26.620Z,15.08
2023-03-31T12:14:26.646Z,15.30
2023-03-31T12:15:26.783Z,15.60
2023-03-31T12:16:27.110Z,15.81
2023-03-31T12:17:27.165Z,16.10
2023-03-31T12:18:27.257Z,16.25
2023-03-31T12:19:27.408Z,16.24
2023-03-31T12:20:27.554Z,16.24
2023-03-31T12:21:27.687Z,16.13
2023-03-31T12:22:27.818Z,16.03
2023-03-31T12:23:28.017Z,16.02
2023-03-31T12:24:28.106Z,15.81
2023-03-31T12:25:28.379Z,15.80
2023-03-31T12:26:28.502Z,15.72
2023-03-31T12:27:28.633Z,15.62
2023-03-31T12:28:28.780Z,15.51
2023-03-31T12:29:28.935Z,15.48
2023-03-31T12:30:29.081Z,15.43
2023-03-31T12:31:29.256Z,15.36
2023-03-31T12:32:29.384Z,15.36
2023-03-31T12:33:29.584Z,15.41
2023-03-31T12:34:29.713Z,15.36
2023-03-31T12:35:29.851Z,15.39
2023-03-31T12:36:30.002Z,15.29
2023-03-31T12:37:30.158Z,15.18
2023-03-31T12:38:30.287Z,15.07
2023-03-31T12:39:30.448Z,14.92
2023-03-31T12:40:30.603Z,14.87
2023-03-31T12:41:30.757Z,14.73
2023-03-31T12:42:30.901Z,14.61
2023-03-31T12:43:31.093Z,14.44
2023-03-31T12:44:31.271Z,14.28
2023-03-31T12:45:31.503Z,13.97
2023-03-31T12:46:31.662Z,13.57
2023-03-31T12:47:31.817Z,13.17
2023-03-31T12:48:31.933Z,12.94
2023-03-31T12:49:32.105Z,12.78
2023-03-31T12:50:32.251Z,12.65
2023-03-31T12:51:32.557Z,12.51
2023-03-31T12:52:32.753Z,12.45
2023-03-31T12:53:32.940Z,12.37
2023-03-31T12:54:33.155Z,12.36